sensor_id;sensor_type;location;lat;lon;timestamp;P1;durP1;ratioP1;P2;durP2;ratioP2
9388;SDS011;4734;52.778;6.798;2023-03-01T00:01:43;7.27;;;5.90;;
9388;SDS011;4734;52.778;6.798;2023-03-01T00:04:29;8.53;;;7.30;;
9388;SDS011;4734;52.778;6.798;2023-03-01T00:07:14;7.40;;;6.70;;
9388;SDS011;4734;52.778;6.798;2023-03-01T00:10:00;6.70;;;6.07;;
9388;SDS011;4734;52.778;6.798;2023-03-01T00:12:46;6.10;;;5.30;;
9388;SDS011;4734;52.778;6.798;2023-03-01T00:15:33;7.10;;;6.40;;
9388;SDS011;4734;52.778;6.798;2023-03-01T00:18:18;8.93;;;8.03;;
9388;SDS011;4734;52.778;6.798;2023-03-01T00:21:06;8.80;;;7.90;;
9388;SDS011;4734;52.778;6.798;2023-03-01T00:23:51;8.77;;;7.87;;
9388;SDS011;4734;52.778;6.798;2023-03-01T00:26:40;10.00;;;7.87;;
9388;SDS011;4734;52.778;6.798;2023-03-01T00:29:26;9.77;;;7.37;;
9388;SDS011;4734;52.778;6.798;2023-03-01T00:32:13;8.63;;;6.37;;
9388;SDS011;4734;52.778;6.798;2023-03-01T00:34:59;8.50;;;7.57;;
9388;SDS011;4734;52.778;6.798;2023-03-01T00:37:45;10.73;;;7.53;;
9388;SDS011;4734;52.778;6.798;2023-03-01T00:40:32;9.37;;;7.87;;
9388;SDS011;4734;52.778;6.798;2023-03-01T00:43:18;7.80;;;7.00;;
9388;SDS011;4734;52.778;6.798;2023-03-01T00:46:04;8.03;;;7.07;;
9388;SDS011;4734;52.778;6.798;2023-03-01T00:48:52;10.87;;;7.00;;
9388;SDS011;4734;52.778;6.798;2023-03-01T00:51:38;9.50;;;7.70;;
9388;SDS011;4734;52.778;6.798;2023-03-01T00:54:24;10.17;;;8.40;;
9388;SDS011;4734;52.778;6.798;2023-03-01T00:57:10;11.03;;;8.03;;
9388;SDS011;4734;52.778;6.798;2023-03-01T00:59:56;9.50;;;8.50;;
9388;SDS011;4734;52.778;6.798;2023-03-01T01:02:42;11.70;;;8.73;;
9388;SDS011;4734;52.778;6.798;2023-03-01T01:05:33;10.40;;;8.83;;
9388;SDS011;4734;52.778;6.798;2023-03-01T01:08:19;10.27;;;8.43;;
9388;SDS011;4734;52.778;6.798;2023-03-01T01:11:05;9.47;;;8.27;;
9388;SDS011;4734;52.778;6.798;2023-03-01T01:13:51;9.83;;;8.67;;
9388;SDS011;4734;52.778;6.798;2023-03-01T01:16:37;11.17;;;9.30;;
9388;SDS011;4734;52.778;6.798;2023-03-01T01:19:23;10.77;;;9.63;;
9388;SDS011;4734;52.778;6.798;2023-03-01T01:22:10;11.00;;;9.43;;
9388;SDS011;4734;52.778;6.798;2023-03-01T01:24:56;11.33;;;9.00;;
9388;SDS011;4734;52.778;6.798;2023-03-01T01:27:42;11.50;;;8.10;;
9388;SDS011;4734;52.778;6.798;2023-03-01T01:30:28;10.60;;;9.50;;
9388;SDS011;4734;52.778;6.798;2023-03-01T01:33:13;11.80;;;8.37;;
9388;SDS011;4734;52.778;6.798;2023-03-01T01:35:59;8.37;;;7.50;;
9388;SDS011;4734;52.778;6.798;2023-03-01T01:38:46;9.87;;;8.70;;
9388;SDS011;4734;52.778;6.798;2023-03-01T01:41:32;14.17;;;10.13;;
9388;SDS011;4734;52.778;6.798;2023-03-01T01:44:19;9.90;;;8.90;;
9388;SDS011;4734;52.778;6.798;2023-03-01T01:47:06;11.83;;;9.60;;
9388;SDS011;4734;52.778;6.798;2023-03-01T01:49:54;9.90;;;8.73;;
9388;SDS011;4734;52.778;6.798;2023-03-01T01:52:40;11.30;;;9.27;;
9388;SDS011;4734;52.778;6.798;2023-03-01T01:55:27;11.17;;;9.80;;
9388;SDS011;4734;52.778;6.798;2023-03-01T01:58:14;10.83;;;7.87;;
9388;SDS011;4734;52.778;6.798;2023-03-01T02:01:01;10.53;;;9.43;;
9388;SDS011;4734;52.778;6.798;2023-03-01T02:03:47;11.70;;;9.70;;
9388;SDS011;4734;52.778;6.798;2023-03-01T02:06:33;12.30;;;9.73;;
9388;SDS011;4734;52.778;6.798;2023-03-01T02:09:20;9.53;;;8.53;;
9388;SDS011;4734;52.778;6.798;2023-03-01T02:12:08;10.60;;;8.60;;
9388;SDS011;4734;52.778;6.798;2023-03-01T02:14:54;14.03;;;10.13;;
9388;SDS011;4734;52.778;6.798;2023-03-01T02:17:40;11.07;;;9.47;;
9388;SDS011;4734;52.778;6.798;2023-03-01T02:20:28;11.53;;;10.33;;
9388;SDS011;4734;52.778;6.798;2023-03-01T02:23:14;11.43;;;8.87;;
9388;SDS011;4734;52.778;6.798;2023-03-01T02:26:02;12.73;;;10.50;;
9388;SDS011;4734;52.778;6.798;2023-03-01T02:28:52;12.67;;;9.77;;
9388;SDS011;4734;52.778;6.798;2023-03-01T02:31:38;13.07;;;9.47;;
9388;SDS011;4734;52.778;6.798;2023-03-01T02:34:27;12.60;;;9.67;;
9388;SDS011;4734;52.778;6.798;2023-03-01T02:37:14;11.40;;;10.20;;
9388;SDS011;4734;52.778;6.798;2023-03-01T02:40:05;12.17;;;10.23;;
9388;SDS011;4734;52.778;6.798;2023-03-01T02:42:55;10.97;;;9.20;;
9388;SDS011;4734;52.778;6.798;2023-03-01T02:45:47;10.13;;;9.03;;
9388;SDS011;4734;52.778;6.798;2023-03-01T02:48:40;12.30;;;9.80;;
9388;SDS011;4734;52.778;6.798;2023-03-01T02:51:42;9.97;;;8.93;;
9388;SDS011;4734;52.778;6.798;2023-03-01T02:54:31;8.37;;;7.23;;
9388;SDS011;4734;52.778;6.798;2023-03-01T02:57:19;7.67;;;6.93;;
9388;SDS011;4734;52.778;6.798;2023-03-01T03:00:06;9.57;;;8.57;;
9388;SDS011;4734;52.778;6.798;2023-03-01T03:02:54;8.73;;;7.80;;
9388;SDS011;4734;52.778;6.798;2023-03-01T03:05:40;11.60;;;9.00;;
9388;SDS011;4734;52.778;6.798;2023-03-01T03:08:26;8.90;;;7.73;;
9388;SDS011;4734;52.778;6.798;2023-03-01T03:11:12;11.10;;;9.33;;
9388;SDS011;4734;52.778;6.798;2023-03-01T03:13:57;12.03;;;8.90;;
9388;SDS011;4734;52.778;6.798;2023-03-01T03:16:45;11.03;;;8.23;;
9388;SDS011;4734;52.778;6.798;2023-03-01T03:19:32;10.07;;;8.77;;
9388;SDS011;4734;52.778;6.798;2023-03-01T03:22:18;8.77;;;7.47;;
9388;SDS011;4734;52.778;6.798;2023-03-01T03:25:04;9.73;;;8.73;;
9388;SDS011;4734;52.778;6.798;2023-03-01T03:27:54;9.37;;;8.27;;
9388;SDS011;4734;52.778;6.798;2023-03-01T03:30:41;10.27;;;8.53;;
9388;SDS011;4734;52.778;6.798;2023-03-01T03:33:27;10.57;;;8.63;;
9388;SDS011;4734;52.778;6.798;2023-03-01T03:36:16;10.93;;;9.83;;
9388;SDS011;4734;52.778;6.798;2023-03-01T03:39:02;13.60;;;10.13;;
9388;SDS011;4734;52.778;6.798;2023-03-01T03:41:49;16.20;;;11.63;;
9388;SDS011;4734;52.778;6.798;2023-03-01T03:44:35;16.07;;;12.27;;
9388;SDS011;4734;52.778;6.798;2023-03-01T03:47:21;11.47;;;9.83;;
9388;SDS011;4734;52.778;6.798;2023-03-01T03:50:07;13.57;;;10.13;;
9388;SDS011;4734;52.778;6.798;2023-03-01T03:52:54;11.73;;;9.57;;
9388;SDS011;4734;52.778;6.798;2023-03-01T03:55:40;11.13;;;9.43;;
9388;SDS011;4734;52.778;6.798;2023-03-01T03:58:27;10.30;;;9.20;;
9388;SDS011;4734;52.778;6.798;2023-03-01T04:01:13;10.93;;;9.60;;
9388;SDS011;4734;52.778;6.798;2023-03-01T04:03:59;14.17;;;9.47;;
9388;SDS011;4734;52.778;6.798;2023-03-01T04:06:47;11.03;;;9.83;;
9388;SDS011;4734;52.778;6.798;2023-03-01T04:09:34;9.67;;;8.10;;
9388;SDS011;4734;52.778;6.798;2023-03-01T04:12:20;7.90;;;7.00;;
9388;SDS011;4734;52.778;6.798;2023-03-01T04:15:07;10.87;;;8.73;;
9388;SDS011;4734;52.778;6.798;2023-03-01T04:17:57;11.93;;;9.30;;
9388;SDS011;4734;52.778;6.798;2023-03-01T04:20:44;10.27;;;8.87;;
9388;SDS011;4734;52.778;6.798;2023-03-01T04:23:29;10.23;;;8.47;;
9388;SDS011;4734;52.778;6.798;2023-03-01T04:26:17;9.87;;;8.60;;
9388;SDS011;4734;52.778;6.798;2023-03-01T04:29:03;10.07;;;8.97;;
9388;SDS011;4734;52.778;6.798;2023-03-01T04:31:49;10.10;;;8.90;;
9388;SDS011;4734;52.778;6.798;2023-03-01T04:34:35;7.97;;;7.17;;
9388;SDS011;4734;52.778;6.798;2023-03-01T04:37:20;10.13;;;8.30;;
9388;SDS011;4734;52.778;6.798;2023-03-01T04:40:08;9.37;;;7.93;;
9388;SDS011;4734;52.778;6.798;2023-03-01T04:43:01;9.47;;;8.40;;
9388;SDS011;4734;52.778;6.798;2023-03-01T04:45:47;10.07;;;8.53;;
9388;SDS011;4734;52.778;6.798;2023-03-01T04:48:34;10.50;;;8.63;;
9388;SDS011;4734;52.778;6.798;2023-03-01T04:51:20;10.00;;;8.00;;
9388;SDS011;4734;52.778;6.798;2023-03-01T04:54:05;9.20;;;8.30;;
9388;SDS011;4734;52.778;6.798;2023-03-01T04:56:52;10.80;;;9.30;;
9388;SDS011;4734;52.778;6.798;2023-03-01T04:59:39;10.13;;;8.77;;
9388;SDS011;4734;52.778;6.798;2023-03-01T05:02:25;9.60;;;8.67;;
9388;SDS011;4734;52.778;6.798;2023-03-01T05:05:11;10.83;;;9.17;;
9388;SDS011;4734;52.778;6.798;2023-03-01T05:07:57;11.40;;;9.50;;
9388;SDS011;4734;52.778;6.798;2023-03-01T05:10:44;11.70;;;9.70;;
9388;SDS011;4734;52.778;6.798;2023-03-01T05:13:30;9.20;;;8.30;;
9388;SDS011;4734;52.778;6.798;2023-03-01T05:16:18;9.90;;;8.90;;
9388;SDS011;4734;52.778;6.798;2023-03-01T05:19:04;11.53;;;9.63;;
9388;SDS011;4734;52.778;6.798;2023-03-01T05:21:54;10.43;;;8.80;;
9388;SDS011;4734;52.778;6.798;2023-03-01T05:24:47;10.63;;;8.70;;
9388;SDS011;4734;52.778;6.798;2023-03-01T05:27:33;10.27;;;8.67;;
9388;SDS011;4734;52.778;6.798;2023-03-01T05:30:19;9.20;;;8.30;;
9388;SDS011;4734;52.778;6.798;2023-03-01T05:33:07;9.83;;;8.50;;
9388;SDS011;4734;52.778;6.798;2023-03-01T05:35:59;9.77;;;8.63;;
9388;SDS011;4734;52.778;6.798;2023-03-01T05:38:44;8.90;;;8.00;;
9388;SDS011;4734;52.778;6.798;2023-03-01T05:41:30;9.57;;;8.10;;
9388;SDS011;4734;52.778;6.798;2023-03-01T05:44:16;9.13;;;8.20;;
9388;SDS011;4734;52.778;6.798;2023-03-01T05:47:01;11.13;;;8.77;;
9388;SDS011;4734;52.778;6.798;2023-03-01T05:49:48;10.60;;;8.57;;
9388;SDS011;4734;52.778;6.798;2023-03-01T05:52:34;9.10;;;8.20;;
9388;SDS011;4734;52.778;6.798;2023-03-01T05:55:20;10.20;;;8.30;;
9388;SDS011;4734;52.778;6.798;2023-03-01T05:58:07;8.87;;;7.97;;
9388;SDS011;4734;52.778;6.798;2023-03-01T06:00:54;10.20;;;8.30;;
9388;SDS011;4734;52.778;6.798;2023-03-01T06:03:40;9.00;;;8.10;;
9388;SDS011;4734;52.778;6.798;2023-03-01T06:06:27;9.77;;;8.77;;
9388;SDS011;4734;52.778;6.798;2023-03-01T06:09:13;8.83;;;7.93;;
9388;SDS011;4734;52.778;6.798;2023-03-01T06:11:59;10.80;;;9.43;;
9388;SDS011;4734;52.778;6.798;2023-03-01T06:14:45;12.30;;;8.93;;
9388;SDS011;4734;52.778;6.798;2023-03-01T06:17:32;8.90;;;8.00;;
9388;SDS011;4734;52.778;6.798;2023-03-01T06:20:21;10.23;;;8.43;;
9388;SDS011;4734;52.778;6.798;2023-03-01T06:23:09;14.93;;;9.10;;
9388;SDS011;4734;52.778;6.798;2023-03-01T06:25:54;11.37;;;8.80;;
9388;SDS011;4734;52.778;6.798;2023-03-01T06:28:40;14.30;;;8.70;;
9388;SDS011;4734;52.778;6.798;2023-03-01T06:31:26;13.07;;;9.13;;
9388;SDS011;4734;52.778;6.798;2023-03-01T06:34:11;10.43;;;9.10;;
9388;SDS011;4734;52.778;6.798;2023-03-01T06:36:57;10.73;;;8.90;;
9388;SDS011;4734;52.778;6.798;2023-03-01T06:39:44;11.60;;;8.50;;
9388;SDS011;4734;52.778;6.798;2023-03-01T06:42:30;9.73;;;8.43;;
9388;SDS011;4734;52.778;6.798;2023-03-01T06:45:17;10.60;;;8.27;;
9388;SDS011;4734;52.778;6.798;2023-03-01T06:48:03;9.10;;;8.17;;
9388;SDS011;4734;52.778;6.798;2023-03-01T06:50:49;9.37;;;8.37;;
9388;SDS011;4734;52.778;6.798;2023-03-01T06:53:35;9.17;;;7.90;;
9388;SDS011;4734;52.778;6.798;2023-03-01T06:56:22;8.80;;;8.00;;
9388;SDS011;4734;52.778;6.798;2023-03-01T06:59:08;8.50;;;7.60;;
9388;SDS011;4734;52.778;6.798;2023-03-01T07:01:54;9.03;;;8.13;;
9388;SDS011;4734;52.778;6.798;2023-03-01T07:04:40;10.73;;;8.43;;
9388;SDS011;4734;52.778;6.798;2023-03-01T07:07:26;10.47;;;8.60;;
9388;SDS011;4734;52.778;6.798;2023-03-01T07:10:12;11.63;;;9.37;;
9388;SDS011;4734;52.778;6.798;2023-03-01T07:12:59;10.07;;;8.17;;
9388;SDS011;4734;52.778;6.798;2023-03-01T07:15:45;8.37;;;7.50;;
9388;SDS011;4734;52.778;6.798;2023-03-01T07:18:31;10.53;;;8.77;;
9388;SDS011;4734;52.778;6.798;2023-03-01T07:21:17;11.97;;;9.73;;
9388;SDS011;4734;52.778;6.798;2023-03-01T07:24:03;11.07;;;9.93;;
9388;SDS011;4734;52.778;6.798;2023-03-01T07:26:49;11.23;;;9.80;;
9388;SDS011;4734;52.778;6.798;2023-03-01T07:29:36;12.87;;;10.17;;
9388;SDS011;4734;52.778;6.798;2023-03-01T07:32:22;12.87;;;9.57;;
9388;SDS011;4734;52.778;6.798;2023-03-01T07:35:08;12.60;;;10.30;;
9388;SDS011;4734;52.778;6.798;2023-03-01T07:37:54;11.03;;;9.63;;
9388;SDS011;4734;52.778;6.798;2023-03-01T07:40:39;12.07;;;9.90;;
9388;SDS011;4734;52.778;6.798;2023-03-01T07:43:25;12.60;;;11.00;;
9388;SDS011;4734;52.778;6.798;2023-03-01T07:46:12;11.83;;;10.00;;
9388;SDS011;4734;52.778;6.798;2023-03-01T07:48:58;13.20;;;11.17;;
9388;SDS011;4734;52.778;6.798;2023-03-01T07:51:44;14.30;;;11.30;;
9388;SDS011;4734;52.778;6.798;2023-03-01T07:54:29;15.43;;;11.73;;
9388;SDS011;4734;52.778;6.798;2023-03-01T07:57:15;17.00;;;12.13;;
9388;SDS011;4734;52.778;6.798;2023-03-01T08:00:00;17.57;;;12.33;;
9388;SDS011;4734;52.778;6.798;2023-03-01T08:02:47;13.43;;;11.57;;
9388;SDS011;4734;52.778;6.798;2023-03-01T08:05:33;19.67;;;13.13;;
9388;SDS011;4734;52.778;6.798;2023-03-01T08:08:19;17.07;;;13.90;;
9388;SDS011;4734;52.778;6.798;2023-03-01T08:11:06;18.33;;;13.83;;
9388;SDS011;4734;52.778;6.798;2023-03-01T08:13:52;15.47;;;13.60;;
9388;SDS011;4734;52.778;6.798;2023-03-01T08:16:38;15.93;;;13.43;;
9388;SDS011;4734;52.778;6.798;2023-03-01T08:19:25;20.23;;;13.97;;
9388;SDS011;4734;52.778;6.798;2023-03-01T08:22:12;19.03;;;14.77;;
9388;SDS011;4734;52.778;6.798;2023-03-01T08:24:57;18.97;;;14.87;;
9388;SDS011;4734;52.778;6.798;2023-03-01T08:27:46;17.50;;;14.17;;
9388;SDS011;4734;52.778;6.798;2023-03-01T08:30:31;17.33;;;14.90;;
9388;SDS011;4734;52.778;6.798;2023-03-01T08:33:17;16.43;;;13.67;;
9388;SDS011;4734;52.778;6.798;2023-03-01T08:36:05;16.80;;;15.00;;
9388;SDS011;4734;52.778;6.798;2023-03-01T08:38:51;18.00;;;14.83;;
9388;SDS011;4734;52.778;6.798;2023-03-01T08:41:37;18.77;;;14.50;;
9388;SDS011;4734;52.778;6.798;2023-03-01T08:44:22;16.67;;;14.37;;
9388;SDS011;4734;52.778;6.798;2023-03-01T08:47:08;17.37;;;14.27;;
9388;SDS011;4734;52.778;6.798;2023-03-01T08:49:58;15.20;;;12.07;;
9388;SDS011;4734;52.778;6.798;2023-03-01T08:52:48;16.37;;;12.60;;
9388;SDS011;4734;52.778;6.798;2023-03-01T08:55:34;16.77;;;12.73;;
9388;SDS011;4734;52.778;6.798;2023-03-01T08:58:19;14.87;;;12.60;;
9388;SDS011;4734;52.778;6.798;2023-03-01T09:01:08;16.43;;;12.77;;
9388;SDS011;4734;52.778;6.798;2023-03-01T09:03:54;14.40;;;11.20;;
9388;SDS011;4734;52.778;6.798;2023-03-01T09:06:40;15.30;;;12.03;;
9388;SDS011;4734;52.778;6.798;2023-03-01T09:09:28;14.17;;;11.60;;
9388;SDS011;4734;52.778;6.798;2023-03-01T09:12:14;13.13;;;11.30;;
9388;SDS011;4734;52.778;6.798;2023-03-01T09:15:00;14.27;;;11.90;;
9388;SDS011;4734;52.778;6.798;2023-03-01T09:17:45;14.70;;;12.23;;
9388;SDS011;4734;52.778;6.798;2023-03-01T09:20:31;15.67;;;12.93;;
9388;SDS011;4734;52.778;6.798;2023-03-01T09:23:17;16.27;;;13.40;;
9388;SDS011;4734;52.778;6.798;2023-03-01T09:26:04;13.80;;;12.23;;
9388;SDS011;4734;52.778;6.798;2023-03-01T09:28:53;13.00;;;11.50;;
9388;SDS011;4734;52.778;6.798;2023-03-01T09:31:40;11.90;;;9.00;;
9388;SDS011;4734;52.778;6.798;2023-03-01T09:34:26;10.00;;;8.90;;
9388;SDS011;4734;52.778;6.798;2023-03-01T09:37:11;8.83;;;7.90;;
9388;SDS011;4734;52.778;6.798;2023-03-01T09:39:58;10.43;;;8.43;;
9388;SDS011;4734;52.778;6.798;2023-03-01T09:42:50;10.20;;;8.30;;
9388;SDS011;4734;52.778;6.798;2023-03-01T09:45:38;10.73;;;8.77;;
9388;SDS011;4734;52.778;6.798;2023-03-01T09:48:26;7.27;;;6.43;;
9388;SDS011;4734;52.778;6.798;2023-03-01T09:51:14;8.47;;;6.03;;
9388;SDS011;4734;52.778;6.798;2023-03-01T09:54:05;6.33;;;5.70;;
9388;SDS011;4734;52.778;6.798;2023-03-01T09:56:57;7.03;;;6.17;;
9388;SDS011;4734;52.778;6.798;2023-03-01T10:00:03;7.67;;;5.60;;
9388;SDS011;4734;52.778;6.798;2023-03-01T10:02:56;4.17;;;3.83;;
9388;SDS011;4734;52.778;6.798;2023-03-01T10:05:48;4.13;;;3.50;;
9388;SDS011;4734;52.778;6.798;2023-03-01T10:08:39;7.60;;;3.10;;
9388;SDS011;4734;52.778;6.798;2023-03-01T10:11:27;7.07;;;3.10;;
9388;SDS011;4734;52.778;6.798;2023-03-01T10:14:22;3.47;;;2.70;;
9388;SDS011;4734;52.778;6.798;2023-03-01T10:17:12;5.47;;;2.73;;
9388;SDS011;4734;52.778;6.798;2023-03-01T10:20:14;3.20;;;2.40;;
9388;SDS011;4734;52.778;6.798;2023-03-01T10:23:02;4.63;;;2.97;;
9388;SDS011;4734;52.778;6.798;2023-03-01T10:25:52;3.10;;;2.80;;
9388;SDS011;4734;52.778;6.798;2023-03-01T10:28:42;2.90;;;2.50;;
9388;SDS011;4734;52.778;6.798;2023-03-01T10:31:36;5.50;;;3.17;;
9388;SDS011;4734;52.778;6.798;2023-03-01T10:34:27;4.07;;;3.20;;
9388;SDS011;4734;52.778;6.798;2023-03-01T10:37:14;3.13;;;2.83;;
9388;SDS011;4734;52.778;6.798;2023-03-01T10:40:02;4.00;;;3.10;;
9388;SDS011;4734;52.778;6.798;2023-03-01T10:42:51;3.87;;;2.97;;
9388;SDS011;4734;52.778;6.798;2023-03-01T10:45:38;3.83;;;2.97;;
9388;SDS011;4734;52.778;6.798;2023-03-01T10:48:26;4.90;;;3.60;;
9388;SDS011;4734;52.778;6.798;2023-03-01T10:51:17;3.27;;;2.60;;
9388;SDS011;4734;52.778;6.798;2023-03-01T10:54:03;3.37;;;3.00;;
9388;SDS011;4734;52.778;6.798;2023-03-01T10:56:53;3.87;;;3.57;;
9388;SDS011;4734;52.778;6.798;2023-03-01T10:59:39;4.40;;;3.63;;
9388;SDS011;4734;52.778;6.798;2023-03-01T11:02:25;3.83;;;3.20;;
9388;SDS011;4734;52.778;6.798;2023-03-01T11:05:16;4.03;;;3.63;;
9388;SDS011;4734;52.778;6.798;2023-03-01T11:08:09;4.13;;;3.73;;
9388;SDS011;4734;52.778;6.798;2023-03-01T11:11:02;3.80;;;3.50;;
9388;SDS011;4734;52.778;6.798;2023-03-01T11:13:58;4.90;;;4.40;;
9388;SDS011;4734;52.778;6.798;2023-03-01T11:16:45;6.27;;;4.10;;
9388;SDS011;4734;52.778;6.798;2023-03-01T11:19:31;4.73;;;3.37;;
9388;SDS011;4734;52.778;6.798;2023-03-01T11:22:18;3.83;;;3.53;;
9388;SDS011;4734;52.778;6.798;2023-03-01T11:25:10;4.10;;;3.53;;
9388;SDS011;4734;52.778;6.798;2023-03-01T11:28:00;4.67;;;3.40;;
9388;SDS011;4734;52.778;6.798;2023-03-01T11:30:49;4.87;;;3.53;;
9388;SDS011;4734;52.778;6.798;2023-03-01T11:33:40;3.80;;;3.40;;
9388;SDS011;4734;52.778;6.798;2023-03-01T11:36:28;3.93;;;3.50;;
9388;SDS011;4734;52.778;6.798;2023-03-01T11:39:17;4.93;;;4.43;;
9388;SDS011;4734;52.778;6.798;2023-03-01T11:42:13;6.67;;;4.73;;
9388;SDS011;4734;52.778;6.798;2023-03-01T11:45:02;5.00;;;4.50;;
9388;SDS011;4734;52.778;6.798;2023-03-01T11:47:55;5.53;;;4.57;;
9388;SDS011;4734;52.778;6.798;2023-03-01T11:50:47;5.20;;;4.30;;
9388;SDS011;4734;52.778;6.798;2023-03-01T11:53:48;4.90;;;4.40;;
9388;SDS011;4734;52.778;6.798;2023-03-01T11:56:38;5.30;;;4.30;;
9388;SDS011;4734;52.778;6.798;2023-03-01T11:59:35;4.67;;;4.20;;
9388;SDS011;4734;52.778;6.798;2023-03-01T12:02:40;6.80;;;4.73;;
9388;SDS011;4734;52.778;6.798;2023-03-01T12:08:42;5.73;;;5.03;;
9388;SDS011;4734;52.778;6.798;2023-03-01T12:11:39;5.83;;;5.00;;
9388;SDS011;4734;52.778;6.798;2023-03-01T12:14:30;5.73;;;4.60;;
9388;SDS011;4734;52.778;6.798;2023-03-01T12:17:27;5.00;;;4.50;;
9388;SDS011;4734;52.778;6.798;2023-03-01T12:20:23;5.10;;;4.60;;
9388;SDS011;4734;52.778;6.798;2023-03-01T12:23:20;5.80;;;5.10;;
9388;SDS011;4734;52.778;6.798;2023-03-01T12:26:10;5.73;;;5.23;;
9388;SDS011;4734;52.778;6.798;2023-03-01T12:29:05;6.57;;;4.95;;
9388;SDS011;4734;52.778;6.798;2023-03-01T12:31:59;6.67;;;4.87;;
9388;SDS011;4734;52.778;6.798;2023-03-01T12:34:59;5.75;;;4.90;;
9388;SDS011;4734;52.778;6.798;2023-03-01T12:37:51;5.45;;;4.40;;
9388;SDS011;4734;52.778;6.798;2023-03-01T12:40:48;9.85;;;5.07;;
9388;SDS011;4734;52.778;6.798;2023-03-01T12:43:41;5.90;;;5.13;;
9388;SDS011;4734;52.778;6.798;2023-03-01T12:46:45;5.33;;;4.30;;
9388;SDS011;4734;52.778;6.798;2023-03-01T12:49:37;5.05;;;4.53;;
9388;SDS011;4734;52.778;6.798;2023-03-01T12:52:33;5.32;;;4.85;;
9388;SDS011;4734;52.778;6.798;2023-03-01T12:55:24;5.80;;;4.80;;
9388;SDS011;4734;52.778;6.798;2023-03-01T12:58:13;5.53;;;4.68;;
9388;SDS011;4734;52.778;6.798;2023-03-01T13:01:08;5.63;;;5.03;;
9388;SDS011;4734;52.778;6.798;2023-03-01T13:07:15;6.75;;;4.85;;
9388;SDS011;4734;52.778;6.798;2023-03-01T13:10:14;6.93;;;5.30;;
9388;SDS011;4734;52.778;6.798;2023-03-01T13:13:13;5.70;;;4.80;;
9388;SDS011;4734;52.778;6.798;2023-03-01T13:16:19;7.68;;;5.35;;
9388;SDS011;4734;52.778;6.798;2023-03-01T13:19:06;5.28;;;4.60;;
9388;SDS011;4734;52.778;6.798;2023-03-01T13:21:53;5.80;;;5.18;;
9388;SDS011;4734;52.778;6.798;2023-03-01T13:24:40;7.10;;;5.67;;
9388;SDS011;4734;52.778;6.798;2023-03-01T13:27:27;6.25;;;4.68;;
9388;SDS011;4734;52.778;6.798;2023-03-01T13:36:46;7.18;;;5.40;;
9388;SDS011;4734;52.778;6.798;2023-03-01T13:39:38;7.03;;;5.50;;
9388;SDS011;4734;52.778;6.798;2023-03-01T13:42:31;6.45;;;5.38;;
9388;SDS011;4734;52.778;6.798;2023-03-01T13:45:19;7.05;;;6.00;;
9388;SDS011;4734;52.778;6.798;2023-03-01T13:48:08;7.40;;;5.75;;
9388;SDS011;4734;52.778;6.798;2023-03-01T13:50:56;8.10;;;5.78;;
9388;SDS011;4734;52.778;6.798;2023-03-01T13:53:44;7.68;;;5.97;;
9388;SDS011;4734;52.778;6.798;2023-03-01T13:56:33;7.18;;;6.05;;
9388;SDS011;4734;52.778;6.798;2023-03-01T13:59:23;8.30;;;6.75;;
9388;SDS011;4734;52.778;6.798;2023-03-01T14:02:11;10.77;;;6.22;;
9388;SDS011;4734;52.778;6.798;2023-03-01T14:04:58;8.65;;;6.85;;
9388;SDS011;4734;52.778;6.798;2023-03-01T14:07:50;8.10;;;6.93;;
9388;SDS011;4734;52.778;6.798;2023-03-01T14:10:37;7.47;;;6.07;;
9388;SDS011;4734;52.778;6.798;2023-03-01T14:13:34;7.75;;;6.63;;
9388;SDS011;4734;52.778;6.798;2023-03-01T14:16:36;8.43;;;6.95;;
9388;SDS011;4734;52.778;6.798;2023-03-01T14:19:29;9.68;;;7.45;;
9388;SDS011;4734;52.778;6.798;2023-03-01T14:22:17;7.88;;;6.90;;
9388;SDS011;4734;52.778;6.798;2023-03-01T14:25:17;7.97;;;7.13;;
9388;SDS011;4734;52.778;6.798;2023-03-01T14:28:11;7.95;;;7.15;;
9388;SDS011;4734;52.778;6.798;2023-03-01T14:30:59;8.32;;;7.03;;
9388;SDS011;4734;52.778;6.798;2023-03-01T14:33:55;8.90;;;6.88;;
9388;SDS011;4734;52.778;6.798;2023-03-01T14:36:44;8.88;;;7.30;;
9388;SDS011;4734;52.778;6.798;2023-03-01T14:39:30;7.57;;;6.07;;
9388;SDS011;4734;52.778;6.798;2023-03-01T14:42:20;8.10;;;7.30;;
9388;SDS011;4734;52.778;6.798;2023-03-01T14:45:09;8.32;;;7.40;;
9388;SDS011;4734;52.778;6.798;2023-03-01T14:47:58;9.77;;;6.97;;
9388;SDS011;4734;52.778;6.798;2023-03-01T14:50:49;8.15;;;7.35;;
9388;SDS011;4734;52.778;6.798;2023-03-01T14:53:35;8.18;;;6.90;;
9388;SDS011;4734;52.778;6.798;2023-03-01T14:56:23;8.30;;;7.32;;
9388;SDS011;4734;52.778;6.798;2023-03-01T14:59:09;8.13;;;6.40;;
9388;SDS011;4734;52.778;6.798;2023-03-01T15:01:56;8.30;;;7.50;;
9388;SDS011;4734;52.778;6.798;2023-03-01T15:04:43;6.85;;;6.15;;
9388;SDS011;4734;52.778;6.798;2023-03-01T15:07:31;8.15;;;7.18;;
9388;SDS011;4734;52.778;6.798;2023-03-01T15:10:19;7.45;;;6.50;;
9388;SDS011;4734;52.778;6.798;2023-03-01T15:13:11;10.13;;;7.03;;
9388;SDS011;4734;52.778;6.798;2023-03-01T15:16:04;8.48;;;6.95;;
9388;SDS011;4734;52.778;6.798;2023-03-01T15:18:52;8.00;;;7.03;;
9388;SDS011;4734;52.778;6.798;2023-03-01T15:21:39;8.52;;;7.05;;
9388;SDS011;4734;52.778;6.798;2023-03-01T15:24:30;7.10;;;6.40;;
9388;SDS011;4734;52.778;6.798;2023-03-01T15:27:18;7.80;;;7.00;;
9388;SDS011;4734;52.778;6.798;2023-03-01T15:30:05;8.45;;;7.18;;
9388;SDS011;4734;52.778;6.798;2023-03-01T15:35:52;7.63;;;6.93;;
9388;SDS011;4734;52.778;6.798;2023-03-01T15:38:49;8.10;;;6.68;;
9388;SDS011;4734;52.778;6.798;2023-03-01T15:41:46;8.73;;;7.30;;
9388;SDS011;4734;52.778;6.798;2023-03-01T15:44:33;7.65;;;6.43;;
9388;SDS011;4734;52.778;6.798;2023-03-01T15:47:27;7.15;;;6.43;;
9388;SDS011;4734;52.778;6.798;2023-03-01T15:50:15;7.32;;;6.25;;
9388;SDS011;4734;52.778;6.798;2023-03-01T15:53:03;7.78;;;6.93;;
9388;SDS011;4734;52.778;6.798;2023-03-01T15:55:51;7.57;;;6.75;;
9388;SDS011;4734;52.778;6.798;2023-03-01T15:58:38;8.25;;;7.40;;
9388;SDS011;4734;52.778;6.798;2023-03-01T16:01:25;7.57;;;6.88;;
9388;SDS011;4734;52.778;6.798;2023-03-01T16:04:11;7.85;;;7.15;;
9388;SDS011;4734;52.778;6.798;2023-03-01T16:07:04;7.85;;;7.13;;
9388;SDS011;4734;52.778;6.798;2023-03-01T16:09:49;8.10;;;7.35;;
9388;SDS011;4734;52.778;6.798;2023-03-01T16:12:35;7.72;;;7.03;;
9388;SDS011;4734;52.778;6.798;2023-03-01T16:15:24;8.48;;;7.68;;
9388;SDS011;4734;52.778;6.798;2023-03-01T16:18:11;7.85;;;7.15;;
9388;SDS011;4734;52.778;6.798;2023-03-01T16:20:56;8.50;;;7.65;;
9388;SDS011;4734;52.778;6.798;2023-03-01T16:23:43;9.18;;;7.80;;
9388;SDS011;4734;52.778;6.798;2023-03-01T16:26:29;8.07;;;7.28;;
9388;SDS011;4734;52.778;6.798;2023-03-01T16:29:15;8.45;;;7.65;;
9388;SDS011;4734;52.778;6.798;2023-03-01T16:32:02;7.43;;;6.72;;
9388;SDS011;4734;52.778;6.798;2023-03-01T16:34:48;8.73;;;7.78;;
9388;SDS011;4734;52.778;6.798;2023-03-01T16:37:34;8.57;;;7.32;;
9388;SDS011;4734;52.778;6.798;2023-03-01T16:40:21;9.48;;;7.07;;
9388;SDS011;4734;52.778;6.798;2023-03-01T16:43:07;8.40;;;7.60;;
9388;SDS011;4734;52.778;6.798;2023-03-01T16:45:54;8.25;;;7.45;;
9388;SDS011;4734;52.778;6.798;2023-03-01T16:48:41;8.13;;;7.35;;
9388;SDS011;4734;52.778;6.798;2023-03-01T16:51:27;8.10;;;7.30;;
9388;SDS011;4734;52.778;6.798;2023-03-01T16:54:14;8.40;;;7.60;;
9388;SDS011;4734;52.778;6.798;2023-03-01T16:56:59;7.95;;;7.15;;
9388;SDS011;4734;52.778;6.798;2023-03-01T16:59:45;8.23;;;7.43;;
9388;SDS011;4734;52.778;6.798;2023-03-01T17:02:31;9.55;;;8.65;;
9388;SDS011;4734;52.778;6.798;2023-03-01T17:05:18;8.75;;;7.95;;
9388;SDS011;4734;52.778;6.798;2023-03-01T17:08:07;9.43;;;7.85;;
9388;SDS011;4734;52.778;6.798;2023-03-01T17:10:52;8.50;;;7.70;;
9388;SDS011;4734;52.778;6.798;2023-03-01T17:13:39;8.95;;;8.15;;
9388;SDS011;4734;52.778;6.798;2023-03-01T17:16:25;8.70;;;7.75;;
9388;SDS011;4734;52.778;6.798;2023-03-01T17:19:11;8.93;;;8.13;;
9388;SDS011;4734;52.778;6.798;2023-03-01T17:22:02;9.02;;;8.00;;
9388;SDS011;4734;52.778;6.798;2023-03-01T17:24:48;11.48;;;8.68;;
9388;SDS011;4734;52.778;6.798;2023-03-01T17:27:34;9.55;;;8.48;;
9388;SDS011;4734;52.778;6.798;2023-03-01T17:30:20;10.88;;;8.82;;
9388;SDS011;4734;52.778;6.798;2023-03-01T17:33:06;10.88;;;8.68;;